sensor_id;sensor_type;location;lat;lon;timestamp;P1;durP1;ratioP1;P2;durP2;ratioP2
12567;SDS011;6349;50.904;6.136;2024-01-07T00:00:21;9.17;;;8.27;;
12567;SDS011;6349;50.904;6.136;2024-01-07T00:02:22;10.27;;;8.93;;
12567;SDS011;6349;50.904;6.136;2024-01-07T00:04:22;9.53;;;8.53;;
12567;SDS011;6349;50.904;6.136;2024-01-07T00:06:23;10.20;;;9.07;;
12567;SDS011;6349;50.904;6.136;2024-01-07T00:08:23;9.50;;;8.33;;
12567;SDS011;6349;50.904;6.136;2024-01-07T00:10:24;10.40;;;9.17;;
12567;SDS011;6349;50.904;6.136;2024-01-07T00:12:25;9.57;;;8.57;;
12567;SDS011;6349;50.904;6.136;2024-01-07T00:14:25;9.47;;;8.47;;
12567;SDS011;6349;50.904;6.136;2024-01-07T00:16:26;9.57;;;8.40;;
12567;SDS011;6349;50.904;6.136;2024-01-07T00:18:26;9.60;;;8.60;;
12567;SDS011;6349;50.904;6.136;2024-01-07T00:20:27;9.50;;;8.57;;
12567;SDS011;6349;50.904;6.136;2024-01-07T00:22:28;8.63;;;7.73;;
12567;SDS011;6349;50.904;6.136;2024-01-07T00:24:28;9.73;;;8.83;;
12567;SDS011;6349;50.904;6.136;2024-01-07T00:26:29;9.80;;;8.80;;
12567;SDS011;6349;50.904;6.136;2024-01-07T00:28:29;9.33;;;8.33;;
12567;SDS011;6349;50.904;6.136;2024-01-07T00:30:30;10.47;;;9.10;;
12567;SDS011;6349;50.904;6.136;2024-01-07T00:32:30;10.23;;;8.90;;
12567;SDS011;6349;50.904;6.136;2024-01-07T00:34:31;10.83;;;9.20;;
12567;SDS011;6349;50.904;6.136;2024-01-07T00:36:31;11.73;;;9.40;;
12567;SDS011;6349;50.904;6.136;2024-01-07T00:38:32;10.93;;;9.07;;
12567;SDS011;6349;50.904;6.136;2024-01-07T00:40:33;9.50;;;8.53;;
12567;SDS011;6349;50.904;6.136;2024-01-07T00:42:33;12.23;;;9.40;;
12567;SDS011;6349;50.904;6.136;2024-01-07T00:44:34;10.33;;;9.10;;
12567;SDS011;6349;50.904;6.136;2024-01-07T00:46:34;10.83;;;9.30;;
12567;SDS011;6349;50.904;6.136;2024-01-07T00:48:35;12.77;;;9.33;;
12567;SDS011;6349;50.904;6.136;2024-01-07T00:50:36;11.43;;;8.10;;
12567;SDS011;6349;50.904;6.136;2024-01-07T00:52:36;12.47;;;9.40;;
12567;SDS011;6349;50.904;6.136;2024-01-07T00:54:37;11.80;;;9.27;;
12567;SDS011;6349;50.904;6.136;2024-01-07T00:56:37;11.00;;;9.80;;
12567;SDS011;6349;50.904;6.136;2024-01-07T00:58:38;9.87;;;8.83;;
12567;SDS011;6349;50.904;6.136;2024-01-07T01:00:39;11.77;;;9.53;;
12567;SDS011;6349;50.904;6.136;2024-01-07T01:02:39;12.07;;;10.00;;
12567;SDS011;6349;50.904;6.136;2024-01-07T01:04:40;12.27;;;9.57;;
12567;SDS011;6349;50.904;6.136;2024-01-07T01:06:40;15.63;;;11.00;;
12567;SDS011;6349;50.904;6.136;2024-01-07T01:08:41;14.50;;;11.27;;
12567;SDS011;6349;50.904;6.136;2024-01-07T01:10:41;15.73;;;12.07;;
12567;SDS011;6349;50.904;6.136;2024-01-07T01:12:42;14.77;;;11.67;;
12567;SDS011;6349;50.904;6.136;2024-01-07T01:14:43;16.30;;;12.27;;
12567;SDS011;6349;50.904;6.136;2024-01-07T01:16:44;15.10;;;12.50;;
12567;SDS011;6349;50.904;6.136;2024-01-07T01:18:44;15.17;;;12.30;;
12567;SDS011;6349;50.904;6.136;2024-01-07T01:20:45;16.27;;;12.20;;
12567;SDS011;6349;50.904;6.136;2024-01-07T01:22:45;14.77;;;11.73;;
12567;SDS011;6349;50.904;6.136;2024-01-07T01:24:46;17.03;;;13.17;;
12567;SDS011;6349;50.904;6.136;2024-01-07T01:26:47;17.10;;;13.17;;
12567;SDS011;6349;50.904;6.136;2024-01-07T01:28:47;17.30;;;13.43;;
12567;SDS011;6349;50.904;6.136;2024-01-07T01:30:48;18.93;;;14.37;;
12567;SDS011;6349;50.904;6.136;2024-01-07T01:32:48;21.00;;;15.00;;
12567;SDS011;6349;50.904;6.136;2024-01-07T01:34:49;18.77;;;13.37;;
12567;SDS011;6349;50.904;6.136;2024-01-07T01:36:49;19.87;;;13.70;;
12567;SDS011;6349;50.904;6.136;2024-01-07T01:38:50;21.37;;;14.33;;
12567;SDS011;6349;50.904;6.136;2024-01-07T01:40:51;17.87;;;13.83;;
12567;SDS011;6349;50.904;6.136;2024-01-07T01:42:55;18.00;;;13.80;;
12567;SDS011;6349;50.904;6.136;2024-01-07T01:44:55;21.27;;;14.57;;
12567;SDS011;6349;50.904;6.136;2024-01-07T01:46:59;17.17;;;13.50;;
12567;SDS011;6349;50.904;6.136;2024-01-07T01:49:01;18.50;;;13.60;;
12567;SDS011;6349;50.904;6.136;2024-01-07T01:51:01;20.00;;;14.20;;
12567;SDS011;6349;50.904;6.136;2024-01-07T01:53:03;19.67;;;14.53;;
12567;SDS011;6349;50.904;6.136;2024-01-07T01:55:04;18.17;;;14.27;;
12567;SDS011;6349;50.904;6.136;2024-01-07T01:57:04;18.60;;;14.70;;
12567;SDS011;6349;50.904;6.136;2024-01-07T01:59:05;22.47;;;15.07;;
12567;SDS011;6349;50.904;6.136;2024-01-07T02:01:06;20.23;;;14.77;;
12567;SDS011;6349;50.904;6.136;2024-01-07T02:03:07;18.83;;;14.47;;
12567;SDS011;6349;50.904;6.136;2024-01-07T02:05:08;18.63;;;14.53;;
12567;SDS011;6349;50.904;6.136;2024-01-07T02:07:08;20.90;;;14.53;;
12567;SDS011;6349;50.904;6.136;2024-01-07T02:09:09;19.53;;;14.33;;
12567;SDS011;6349;50.904;6.136;2024-01-07T02:11:17;18.27;;;14.33;;
12567;SDS011;6349;50.904;6.136;2024-01-07T02:13:21;19.63;;;14.97;;
12567;SDS011;6349;50.904;6.136;2024-01-07T02:15:22;19.43;;;14.37;;
12567;SDS011;6349;50.904;6.136;2024-01-07T02:17:22;19.20;;;14.63;;
12567;SDS011;6349;50.904;6.136;2024-01-07T02:19:23;18.90;;;14.40;;
12567;SDS011;6349;50.904;6.136;2024-01-07T02:21:23;19.73;;;14.33;;
12567;SDS011;6349;50.904;6.136;2024-01-07T02:23:24;16.93;;;13.07;;
12567;SDS011;6349;50.904;6.136;2024-01-07T02:25:24;17.43;;;13.03;;
12567;SDS011;6349;50.904;6.136;2024-01-07T02:27:25;17.17;;;13.33;;
12567;SDS011;6349;50.904;6.136;2024-01-07T02:29:26;15.40;;;12.37;;
12567;SDS011;6349;50.904;6.136;2024-01-07T02:31:26;16.87;;;12.37;;
12567;SDS011;6349;50.904;6.136;2024-01-07T02:33:27;15.23;;;12.20;;
12567;SDS011;6349;50.904;6.136;2024-01-07T02:35:29;14.80;;;11.80;;
12567;SDS011;6349;50.904;6.136;2024-01-07T02:37:29;16.47;;;11.50;;
12567;SDS011;6349;50.904;6.136;2024-01-07T02:39:30;13.30;;;11.03;;
12567;SDS011;6349;50.904;6.136;2024-01-07T02:41:30;13.87;;;11.20;;
12567;SDS011;6349;50.904;6.136;2024-01-07T02:43:31;16.10;;;12.30;;
12567;SDS011;6349;50.904;6.136;2024-01-07T02:45:31;14.93;;;11.80;;
12567;SDS011;6349;50.904;6.136;2024-01-07T02:47:32;14.27;;;11.57;;
12567;SDS011;6349;50.904;6.136;2024-01-07T02:49:33;12.73;;;10.53;;
12567;SDS011;6349;50.904;6.136;2024-01-07T02:51:33;12.67;;;9.93;;
12567;SDS011;6349;50.904;6.136;2024-01-07T02:53:34;12.90;;;10.13;;
12567;SDS011;6349;50.904;6.136;2024-01-07T02:55:34;11.10;;;9.23;;
12567;SDS011;6349;50.904;6.136;2024-01-07T02:57:35;10.27;;;8.87;;
12567;SDS011;6349;50.904;6.136;2024-01-07T02:59:36;10.13;;;8.50;;
12567;SDS011;6349;50.904;6.136;2024-01-07T03:01:36;10.27;;;8.10;;
12567;SDS011;6349;50.904;6.136;2024-01-07T03:03:40;9.57;;;8.20;;
12567;SDS011;6349;50.904;6.136;2024-01-07T03:05:40;10.60;;;8.53;;
12567;SDS011;6349;50.904;6.136;2024-01-07T03:07:41;9.40;;;7.87;;
12567;SDS011;6349;50.904;6.136;2024-01-07T03:09:42;8.27;;;7.27;;
12567;SDS011;6349;50.904;6.136;2024-01-07T03:11:42;8.30;;;7.40;;
12567;SDS011;6349;50.904;6.136;2024-01-07T03:13:43;8.47;;;7.43;;
12567;SDS011;6349;50.904;6.136;2024-01-07T03:15:43;8.97;;;7.67;;
12567;SDS011;6349;50.904;6.136;2024-01-07T03:17:44;8.13;;;6.97;;
12567;SDS011;6349;50.904;6.136;2024-01-07T03:19:44;8.73;;;7.27;;
12567;SDS011;6349;50.904;6.136;2024-01-07T03:21:45;10.30;;;8.30;;
12567;SDS011;6349;50.904;6.136;2024-01-07T03:23:46;9.63;;;8.00;;
12567;SDS011;6349;50.904;6.136;2024-01-07T03:25:47;9.03;;;7.33;;
12567;SDS011;6349;50.904;6.136;2024-01-07T03:27:47;9.03;;;7.87;;
12567;SDS011;6349;50.904;6.136;2024-01-07T03:29:48;8.63;;;7.40;;
12567;SDS011;6349;50.904;6.136;2024-01-07T03:31:48;9.17;;;7.90;;
12567;SDS011;6349;50.904;6.136;2024-01-07T03:33:50;8.50;;;7.10;;
12567;SDS011;6349;50.904;6.136;2024-01-07T03:35:51;8.37;;;7.07;;
12567;SDS011;6349;50.904;6.136;2024-01-07T03:37:51;7.57;;;6.57;;
12567;SDS011;6349;50.904;6.136;2024-01-07T03:39:52;9.00;;;7.47;;
12567;SDS011;6349;50.904;6.136;2024-01-07T03:41:55;9.37;;;8.00;;
12567;SDS011;6349;50.904;6.136;2024-01-07T03:43:56;8.53;;;7.20;;
12567;SDS011;6349;50.904;6.136;2024-01-07T03:45:57;8.47;;;7.57;;
12567;SDS011;6349;50.904;6.136;2024-01-07T03:47:57;9.37;;;7.17;;
12567;SDS011;6349;50.904;6.136;2024-01-07T03:49:58;9.67;;;7.63;;
12567;SDS011;6349;50.904;6.136;2024-01-07T03:51:58;8.40;;;7.27;;
12567;SDS011;6349;50.904;6.136;2024-01-07T03:53:59;8.93;;;7.37;;
12567;SDS011;6349;50.904;6.136;2024-01-07T03:56:00;7.93;;;7.10;;
12567;SDS011;6349;50.904;6.136;2024-01-07T03:58:00;10.83;;;7.70;;
12567;SDS011;6349;50.904;6.136;2024-01-07T04:00:01;9.40;;;7.53;;
12567;SDS011;6349;50.904;6.136;2024-01-07T04:02:01;9.90;;;8.20;;
12567;SDS011;6349;50.904;6.136;2024-01-07T04:04:02;9.97;;;7.90;;
12567;SDS011;6349;50.904;6.136;2024-01-07T04:06:06;10.13;;;8.37;;
12567;SDS011;6349;50.904;6.136;2024-01-07T04:08:09;11.07;;;9.00;;
12567;SDS011;6349;50.904;6.136;2024-01-07T04:10:09;10.07;;;8.87;;
12567;SDS011;6349;50.904;6.136;2024-01-07T04:12:10;11.93;;;9.07;;
12567;SDS011;6349;50.904;6.136;2024-01-07T04:14:13;9.97;;;8.40;;
12567;SDS011;6349;50.904;6.136;2024-01-07T04:16:20;12.13;;;9.03;;
12567;SDS011;6349;50.904;6.136;2024-01-07T04:18:21;10.30;;;8.63;;
12567;SDS011;6349;50.904;6.136;2024-01-07T04:20:21;11.53;;;9.13;;
12567;SDS011;6349;50.904;6.136;2024-01-07T04:22:22;13.13;;;10.33;;
12567;SDS011;6349;50.904;6.136;2024-01-07T04:24:23;10.97;;;9.43;;
12567;SDS011;6349;50.904;6.136;2024-01-07T04:26:23;14.87;;;11.27;;
12567;SDS011;6349;50.904;6.136;2024-01-07T04:28:24;14.30;;;10.90;;
12567;SDS011;6349;50.904;6.136;2024-01-07T04:30:24;14.90;;;11.00;;
12567;SDS011;6349;50.904;6.136;2024-01-07T04:32:25;14.10;;;11.13;;
12567;SDS011;6349;50.904;6.136;2024-01-07T04:34:26;14.07;;;11.23;;
12567;SDS011;6349;50.904;6.136;2024-01-07T04:36:27;15.20;;;11.53;;
12567;SDS011;6349;50.904;6.136;2024-01-07T04:38:27;13.43;;;11.07;;
12567;SDS011;6349;50.904;6.136;2024-01-07T04:40:28;13.10;;;10.57;;
12567;SDS011;6349;50.904;6.136;2024-01-07T04:42:28;13.10;;;10.67;;
12567;SDS011;6349;50.904;6.136;2024-01-07T04:44:29;14.63;;;10.90;;
12567;SDS011;6349;50.904;6.136;2024-01-07T04:46:29;13.07;;;11.30;;
12567;SDS011;6349;50.904;6.136;2024-01-07T04:48:33;12.77;;;10.93;;
12567;SDS011;6349;50.904;6.136;2024-01-07T04:50:33;14.53;;;11.37;;
12567;SDS011;6349;50.904;6.136;2024-01-07T04:52:34;15.77;;;11.17;;
12567;SDS011;6349;50.904;6.136;2024-01-07T04:54:35;14.97;;;12.07;;
12567;SDS011;6349;50.904;6.136;2024-01-07T04:56:36;14.77;;;11.63;;
12567;SDS011;6349;50.904;6.136;2024-01-07T04:58:37;15.73;;;12.20;;
12567;SDS011;6349;50.904;6.136;2024-01-07T05:00:37;16.37;;;12.33;;
12567;SDS011;6349;50.904;6.136;2024-01-07T05:02:38;15.00;;;11.80;;
12567;SDS011;6349;50.904;6.136;2024-01-07T05:04:38;16.37;;;12.50;;
12567;SDS011;6349;50.904;6.136;2024-01-07T05:06:39;15.90;;;11.90;;
12567;SDS011;6349;50.904;6.136;2024-01-07T05:08:40;15.43;;;12.03;;
12567;SDS011;6349;50.904;6.136;2024-01-07T05:10:41;14.80;;;12.33;;
12567;SDS011;6349;50.904;6.136;2024-01-07T05:12:41;14.40;;;12.00;;
12567;SDS011;6349;50.904;6.136;2024-01-07T05:14:42;16.57;;;13.20;;
12567;SDS011;6349;50.904;6.136;2024-01-07T05:16:43;16.50;;;13.20;;
12567;SDS011;6349;50.904;6.136;2024-01-07T05:18:43;17.17;;;12.60;;
12567;SDS011;6349;50.904;6.136;2024-01-07T05:20:48;18.10;;;13.47;;
12567;SDS011;6349;50.904;6.136;2024-01-07T05:22:52;16.77;;;12.60;;
12567;SDS011;6349;50.904;6.136;2024-01-07T05:24:52;16.40;;;12.37;;
12567;SDS011;6349;50.904;6.136;2024-01-07T05:26:53;15.13;;;11.73;;
12567;SDS011;6349;50.904;6.136;2024-01-07T05:28:54;14.73;;;11.73;;
12567;SDS011;6349;50.904;6.136;2024-01-07T05:30:54;15.33;;;11.70;;
12567;SDS011;6349;50.904;6.136;2024-01-07T05:32:55;14.70;;;11.90;;
12567;SDS011;6349;50.904;6.136;2024-01-07T05:34:56;14.53;;;11.77;;
12567;SDS011;6349;50.904;6.136;2024-01-07T05:36:56;14.23;;;11.17;;
12567;SDS011;6349;50.904;6.136;2024-01-07T05:38:57;14.10;;;11.67;;
12567;SDS011;6349;50.904;6.136;2024-01-07T05:40:57;17.03;;;12.30;;
12567;SDS011;6349;50.904;6.136;2024-01-07T05:42:58;16.87;;;13.17;;
12567;SDS011;6349;50.904;6.136;2024-01-07T05:44:58;18.43;;;13.63;;
12567;SDS011;6349;50.904;6.136;2024-01-07T05:46:59;18.80;;;13.63;;
12567;SDS011;6349;50.904;6.136;2024-01-07T05:48:59;17.13;;;14.13;;
12567;SDS011;6349;50.904;6.136;2024-01-07T05:51:00;20.03;;;14.00;;
12567;SDS011;6349;50.904;6.136;2024-01-07T05:53:01;19.83;;;14.00;;
12567;SDS011;6349;50.904;6.136;2024-01-07T05:55:01;20.03;;;15.17;;
12567;SDS011;6349;50.904;6.136;2024-01-07T05:57:02;19.83;;;14.60;;
12567;SDS011;6349;50.904;6.136;2024-01-07T05:59:03;20.00;;;14.73;;
12567;SDS011;6349;50.904;6.136;2024-01-07T06:01:03;20.63;;;15.43;;
12567;SDS011;6349;50.904;6.136;2024-01-07T06:03:04;21.50;;;16.03;;
12567;SDS011;6349;50.904;6.136;2024-01-07T06:05:04;19.30;;;15.17;;
12567;SDS011;6349;50.904;6.136;2024-01-07T06:07:05;19.67;;;14.67;;
12567;SDS011;6349;50.904;6.136;2024-01-07T06:09:06;18.60;;;14.93;;
12567;SDS011;6349;50.904;6.136;2024-01-07T06:11:07;19.00;;;14.20;;
12567;SDS011;6349;50.904;6.136;2024-01-07T06:13:08;19.40;;;13.70;;
12567;SDS011;6349;50.904;6.136;2024-01-07T06:15:09;17.40;;;14.13;;
12567;SDS011;6349;50.904;6.136;2024-01-07T06:17:09;17.83;;;13.33;;
12567;SDS011;6349;50.904;6.136;2024-01-07T06:19:10;15.87;;;13.00;;
12567;SDS011;6349;50.904;6.136;2024-01-07T06:21:10;15.77;;;12.97;;
12567;SDS011;6349;50.904;6.136;2024-01-07T06:23:11;13.97;;;11.93;;
12567;SDS011;6349;50.904;6.136;2024-01-07T06:25:12;13.83;;;11.83;;
12567;SDS011;6349;50.904;6.136;2024-01-07T06:27:12;14.33;;;11.57;;
12567;SDS011;6349;50.904;6.136;2024-01-07T06:29:13;13.27;;;11.10;;
12567;SDS011;6349;50.904;6.136;2024-01-07T06:31:14;14.57;;;11.80;;
12567;SDS011;6349;50.904;6.136;2024-01-07T06:33:14;12.83;;;10.70;;
12567;SDS011;6349;50.904;6.136;2024-01-07T06:35:15;12.40;;;11.10;;
12567;SDS011;6349;50.904;6.136;2024-01-07T06:37:16;12.97;;;11.20;;
12567;SDS011;6349;50.904;6.136;2024-01-07T06:39:16;11.77;;;10.13;;
12567;SDS011;6349;50.904;6.136;2024-01-07T06:41:17;12.30;;;10.70;;
12567;SDS011;6349;50.904;6.136;2024-01-07T06:43:17;12.47;;;11.10;;
12567;SDS011;6349;50.904;6.136;2024-01-07T06:45:18;11.93;;;10.17;;
12567;SDS011;6349;50.904;6.136;2024-01-07T06:47:19;12.23;;;10.37;;
12567;SDS011;6349;50.904;6.136;2024-01-07T06:49:19;12.57;;;10.63;;
12567;SDS011;6349;50.904;6.136;2024-01-07T06:51:20;12.53;;;11.17;;
12567;SDS011;6349;50.904;6.136;2024-01-07T06:53:20;12.93;;;10.47;;
12567;SDS011;6349;50.904;6.136;2024-01-07T06:55:21;12.97;;;11.30;;
12567;SDS011;6349;50.904;6.136;2024-01-07T06:57:22;13.90;;;12.13;;
12567;SDS011;6349;50.904;6.136;2024-01-07T06:59:22;14.27;;;11.83;;
12567;SDS011;6349;50.904;6.136;2024-01-07T07:01:23;13.87;;;11.63;;
12567;SDS011;6349;50.904;6.136;2024-01-07T07:03:24;14.83;;;12.70;;
12567;SDS011;6349;50.904;6.136;2024-01-07T07:05:24;13.70;;;11.93;;
12567;SDS011;6349;50.904;6.136;2024-01-07T07:07:25;14.17;;;12.43;;
12567;SDS011;6349;50.904;6.136;2024-01-07T07:09:25;15.53;;;12.47;;
12567;SDS011;6349;50.904;6.136;2024-01-07T07:11:26;16.47;;;12.70;;
12567;SDS011;6349;50.904;6.136;2024-01-07T07:13:26;15.67;;;12.43;;
12567;SDS011;6349;50.904;6.136;2024-01-07T07:15:27;14.43;;;12.17;;
12567;SDS011;6349;50.904;6.136;2024-01-07T07:17:28;14.07;;;12.13;;
12567;SDS011;6349;50.904;6.136;2024-01-07T07:19:29;13.70;;;11.73;;
12567;SDS011;6349;50.904;6.136;2024-01-07T07:21:29;14.13;;;11.83;;
12567;SDS011;6349;50.904;6.136;2024-01-07T07:23:30;14.10;;;12.60;;
12567;SDS011;6349;50.904;6.136;2024-01-07T07:25:30;15.80;;;12.73;;
12567;SDS011;6349;50.904;6.136;2024-01-07T07:27:31;15.80;;;13.70;;
12567;SDS011;6349;50.904;6.136;2024-01-07T07:29:31;15.27;;;13.33;;
12567;SDS011;6349;50.904;6.136;2024-01-07T07:31:32;15.23;;;13.10;;
12567;SDS011;6349;50.904;6.136;2024-01-07T07:33:33;15.97;;;13.33;;
12567;SDS011;6349;50.904;6.136;2024-01-07T07:35:33;15.63;;;12.83;;
12567;SDS011;6349;50.904;6.136;2024-01-07T07:37:34;16.10;;;13.77;;
12567;SDS011;6349;50.904;6.136;2024-01-07T07:39:34;15.73;;;13.70;;
12567;SDS011;6349;50.904;6.136;2024-01-07T07:41:35;14.67;;;12.97;;
12567;SDS011;6349;50.904;6.136;2024-01-07T07:43:36;14.00;;;12.60;;
12567;SDS011;6349;50.904;6.136;2024-01-07T07:45:36;13.93;;;12.17;;
12567;SDS011;6349;50.904;6.136;2024-01-07T07:47:37;14.17;;;12.57;;
12567;SDS011;6349;50.904;6.136;2024-01-07T07:49:37;13.87;;;12.43;;
12567;SDS011;6349;50.904;6.136;2024-01-07T07:51:40;13.43;;;12.10;;
12567;SDS011;6349;50.904;6.136;2024-01-07T07:53:41;14.33;;;12.83;;
12567;SDS011;6349;50.904;6.136;2024-01-07T07:55:41;14.00;;;11.63;;
12567;SDS011;6349;50.904;6.136;2024-01-07T07:57:42;15.33;;;13.93;;
12567;SDS011;6349;50.904;6.136;2024-01-07T07:59:42;14.77;;;13.17;;
12567;SDS011;6349;50.904;6.136;2024-01-07T08:01:43;13.07;;;11.73;;
12567;SDS011;6349;50.904;6.136;2024-01-07T08:03:45;13.13;;;11.63;;
12567;SDS011;6349;50.904;6.136;2024-01-07T08:05:46;13.67;;;12.27;;
12567;SDS011;6349;50.904;6.136;2024-01-07T08:07:46;14.17;;;12.60;;
12567;SDS011;6349;50.904;6.136;2024-01-07T08:09:47;14.03;;;12.53;;
12567;SDS011;6349;50.904;6.136;2024-01-07T08:11:47;12.77;;;11.40;;
12567;SDS011;6349;50.904;6.136;2024-01-07T08:13:48;13.07;;;11.60;;
12567;SDS011;6349;50.904;6.136;2024-01-07T08:15:48;12.90;;;11.43;;
12567;SDS011;6349;50.904;6.136;2024-01-07T08:17:49;13.30;;;11.57;;
12567;SDS011;6349;50.904;6.136;2024-01-07T08:19:51;13.47;;;11.60;;
12567;SDS011;6349;50.904;6.136;2024-01-07T08:21:53;12.67;;;11.37;;
12567;SDS011;6349;50.904;6.136;2024-01-07T08:23:53;12.30;;;10.80;;
12567;SDS011;6349;50.904;6.136;2024-01-07T08:25:54;12.40;;;11.17;;
12567;SDS011;6349;50.904;6.136;2024-01-07T08:27:54;12.77;;;11.47;;
12567;SDS011;6349;50.904;6.136;2024-01-07T08:29:55;12.53;;;11.23;;
12567;SDS011;6349;50.904;6.136;2024-01-07T08:31:55;12.13;;;10.83;;
12567;SDS011;6349;50.904;6.136;2024-01-07T08:33:56;13.00;;;11.70;;
12567;SDS011;6349;50.904;6.136;2024-01-07T08:35:57;12.30;;;11.00;;
12567;SDS011;6349;50.904;6.136;2024-01-07T08:37:57;13.00;;;11.57;;
12567;SDS011;6349;50.904;6.136;2024-01-07T08:39:58;12.67;;;11.37;;
12567;SDS011;6349;50.904;6.136;2024-01-07T08:41:59;13.03;;;11.63;;
12567;SDS011;6349;50.904;6.136;2024-01-07T08:44:00;14.23;;;11.50;;
12567;SDS011;6349;50.904;6.136;2024-01-07T08:46:00;12.90;;;11.43;;
12567;SDS011;6349;50.904;6.136;2024-01-07T08:48:04;14.67;;;12.03;;
12567;SDS011;6349;50.904;6.136;2024-01-07T08:50:05;14.17;;;12.30;;
12567;SDS011;6349;50.904;6.136;2024-01-07T08:52:07;12.40;;;11.10;;
12567;SDS011;6349;50.904;6.136;2024-01-07T08:54:07;13.77;;;12.13;;
12567;SDS011;6349;50.904;6.136;2024-01-07T08:56:08;13.27;;;11.87;;
12567;SDS011;6349;50.904;6.136;2024-01-07T08:58:08;15.87;;;12.77;;
12567;SDS011;6349;50.904;6.136;2024-01-07T09:00:09;14.80;;;12.80;;
12567;SDS011;6349;50.904;6.136;2024-01-07T09:02:10;13.83;;;12.10;;
12567;SDS011;6349;50.904;6.136;2024-01-07T09:04:11;14.10;;;12.30;;
12567;SDS011;6349;50.904;6.136;2024-01-07T09:06:11;14.27;;;12.77;;
12567;SDS011;6349;50.904;6.136;2024-01-07T09:08:12;13.70;;;12.27;;
12567;SDS011;6349;50.904;6.136;2024-01-07T09:10:14;14.43;;;12.87;;
12567;SDS011;6349;50.904;6.136;2024-01-07T09:12:15;14.47;;;12.33;;
12567;SDS011;6349;50.904;6.136;2024-01-07T09:14:15;14.30;;;12.43;;
12567;SDS011;6349;50.904;6.136;2024-01-07T09:16:16;13.47;;;11.73;;
12567;SDS011;6349;50.904;6.136;2024-01-07T09:18:17;13.57;;;12.17;;
12567;SDS011;6349;50.904;6.136;2024-01-07T09:20:18;13.43;;;12.03;;
12567;SDS011;6349;50.904;6.136;2024-01-07T09:22:19;14.10;;;11.97;;
12567;SDS011;6349;50.904;6.136;2024-01-07T09:24:21;13.70;;;11.90;;
12567;SDS011;6349;50.904;6.136;2024-01-07T09:26:21;13.50;;;11.77;;
12567;SDS011;6349;50.904;6.136;2024-01-07T09:28:22;14.13;;;12.60;;
12567;SDS011;6349;50.904;6.136;2024-01-07T09:30:23;14.33;;;12.83;;
12567;SDS011;6349;50.904;6.136;2024-01-07T09:32:23;13.53;;;12.03;;
12567;SDS011;6349;50.904;6.136;2024-01-07T09:34:24;13.20;;;11.80;;
12567;SDS011;6349;50.904;6.136;2024-01-07T09:36:24;13.87;;;12.47;;
12567;SDS011;6349;50.904;6.136;2024-01-07T09:38:25;12.43;;;11.13;;
12567;SDS011;6349;50.904;6.136;2024-01-07T09:40:26;12.43;;;11.13;;
12567;SDS011;6349;50.904;6.136;2024-01-07T09:42:27;12.63;;;11.27;;
12567;SDS011;6349;50.904;6.136;2024-01-07T09:44:27;12.37;;;11.07;;
12567;SDS011;6349;50.904;6.136;2024-01-07T09:46:28;11.40;;;10.20;;
12567;SDS011;6349;50.904;6.136;2024-01-07T09:48:32;12.37;;;11.03;;
12567;SDS011;6349;50.904;6.136;2024-01-07T09:50:32;11.93;;;10.63;;
12567;SDS011;6349;50.904;6.136;2024-01-07T09:52:33;12.27;;;10.70;;
12567;SDS011;6349;50.904;6.136;2024-01-07T09:54:35;11.80;;;10.43;;
12567;SDS011;6349;50.904;6.136;2024-01-07T09:56:41;11.57;;;10.23;;
12567;SDS011;6349;50.904;6.136;2024-01-07T09:58:48;12.67;;;10.30;;
12567;SDS011;6349;50.904;6.136;2024-01-07T10:00:49;12.13;;;10.27;;
12567;SDS011;6349;50.904;6.136;2024-01-07T10:02:50;12.03;;;10.57;;
12567;SDS011;6349;50.904;6.136;2024-01-07T10:04:50;11.60;;;9.80;;
12567;SDS011;6349;50.904;6.136;2024-01-07T10:06:51;11.43;;;9.70;;
12567;SDS011;6349;50.904;6.136;2024-01-07T10:08:54;11.80;;;9.93;;
12567;SDS011;6349;50.904;6.136;2024-01-07T10:10:55;12.90;;;9.87;;
12567;SDS011;6349;50.904;6.136;2024-01-07T10:12:56;10.90;;;8.97;;
12567;SDS011;6349;50.904;6.136;2024-01-07T10:14:56;11.93;;;9.60;;
12567;SDS011;6349;50.904;6.136;2024-01-07T10:16:57;9.83;;;8.33;;
12567;SDS011;6349;50.904;6.136;2024-01-07T10:18:58;9.67;;;8.67;;
12567;SDS011;6349;50.904;6.136;2024-01-07T10:21:01;11.13;;;8.87;;
12567;SDS011;6349;50.904;6.136;2024-01-07T10:23:03;10.60;;;9.23;;
12567;SDS011;6349;50.904;6.136;2024-01-07T10:25:04;10.00;;;8.30;;
12567;SDS011;6349;50.904;6.136;2024-01-07T10:27:06;10.80;;;8.93;;
12567;SDS011;6349;50.904;6.136;2024-01-07T10:29:08;9.80;;;8.80;;
12567;SDS011;6349;50.904;6.136;2024-01-07T10:31:08;10.47;;;8.63;;
12567;SDS011;6349;50.904;6.136;2024-01-07T10:33:09;10.23;;;8.17;;
12567;SDS011;6349;50.904;6.136;2024-01-07T10:35:13;9.37;;;8.37;;
12567;SDS011;6349;50.904;6.136;2024-01-07T10:37:16;9.80;;;8.33;;
12567;SDS011;6349;50.904;6.136;2024-01-07T10:39:17;9.03;;;8.10;;
12567;SDS011;6349;50.904;6.136;2024-01-07T10:41:18;9.50;;;8.50;;
12567;SDS011;6349;50.904;6.136;2024-01-07T10:43:19;9.70;;;8.60;;
12567;SDS011;6349;50.904;6.136;2024-01-07T10:45:20;8.93;;;8.00;;
12567;SDS011;6349;50.904;6.136;2024-01-07T10:47:21;10.13;;;8.60;;
12567;SDS011;6349;50.904;6.136;2024-01-07T10:49:23;10.80;;;8.13;;
12567;SDS011;6349;50.904;6.136;2024-01-07T10:51:29;8.83;;;7.93;;
12567;SDS011;6349;50.904;6.136;2024-01-07T10:53:33;9.07;;;8.17;;
12567;SDS011;6349;50.904;6.136;2024-01-07T10:55:37;8.73;;;7.83;;
12567;SDS011;6349;50.904;6.136;2024-01-07T10:57:44;8.80;;;7.83;;
12567;SDS011;6349;50.904;6.136;2024-01-07T10:59:47;10.63;;;7.80;;
12567;SDS011;6349;50.904;6.136;2024-01-07T11:01:49;8.50;;;7.30;;
12567;SDS011;6349;50.904;6.136;2024-01-07T11:04:04;8.73;;;7.83;;
12567;SDS011;6349;50.904;6.136;2024-01-07T11:06:20;8.80;;;7.90;;
12567;SDS011;6349;50.904;6.136;2024-01-07T11:08:43;8.70;;;7.67;;
12567;SDS011;6349;50.904;6.136;2024-01-07T11:10:59;8.83;;;7.93;;
12567;SDS011;6349;50.904;6.136;2024-01-07T11:13:06;9.47;;;7.80;;
12567;SDS011;6349;50.904;6.136;2024-01-07T11:15:07;8.87;;;7.30;;
12567;SDS011;6349;50.904;6.136;2024-01-07T11:17:07;8.93;;;7.63;;
12567;SDS011;6349;50.904;6.136;2024-01-07T11:19:09;8.93;;;8.03;;
12567;SDS011;6349;50.904;6.136;2024-01-07T11:21:20;9.53;;;7.90;;
12567;SDS011;6349;50.904;6.136;2024-01-07T11:23:28;9.50;;;7.77;;
12567;SDS011;6349;50.904;6.136;2024-01-07T11:25:34;9.27;;;7.30;;
12567;SDS011;6349;50.904;6.136;2024-01-07T11:27:39;8.53;;;7.40;;
12567;SDS011;6349;50.904;6.136;2024-01-07T11:29:40;8.87;;;7.57;;
12567;SDS011;6349;50.904;6.136;2024-01-07T11:33:42;8.47;;;7.37;;
12567;SDS011;6349;50.904;6.136;2024-01-07T11:35:53;8.40;;;7.43;;
12567;SDS011;6349;50.904;6.136;2024-01-07T11:37:54;9.07;;;7.10;;
12567;SDS011;6349;50.904;6.136;2024-01-07T11:39:55;8.57;;;7.70;;
12567;SDS011;6349;50.904;6.136;2024-01-07T11:42:00;8.83;;;7.70;;
12567;SDS011;6349;50.904;6.136;2024-01-07T11:44:03;8.47;;;7.43;;
12567;SDS011;6349;50.904;6.136;2024-01-07T11:46:04;9.07;;;7.70;;
12567;SDS011;6349;50.904;6.136;2024-01-07T11:48:04;8.60;;;7.70;;
12567;SDS011;6349;50.904;6.136;2024-01-07T11:50:06;8.47;;;7.50;;
12567;SDS011;6349;50.904;6.136;2024-01-07T11:52:06;9.80;;;7.70;;
12567;SDS011;6349;50.904;6.136;2024-01-07T11:54:10;8.23;;;7.17;;
12567;SDS011;6349;50.904;6.136;2024-01-07T11:56:10;7.63;;;6.60;;
12567;SDS011;6349;50.904;6.136;2024-01-07T11:58:12;8.03;;;7.23;;
12567;SDS011;6349;50.904;6.136;2024-01-07T12:00:13;9.10;;;7.70;;
12567;SDS011;6349;50.904;6.136;2024-01-07T12:02:14;7.70;;;6.90;;
12567;SDS011;6349;50.904;6.136;2024-01-07T12:04:17;8.53;;;7.47;;
12567;SDS011;6349;50.904;6.136;2024-01-07T12:06:18;8.10;;;7.30;;
12567;SDS011;6349;50.904;6.136;2024-01-07T12:08:19;7.93;;;7.03;;